Time;durP1;ratioP1;P1;durP2;ratioP2;P2;SDS_P1;SDS_P2;PMS_P1;PMS_P2;Temp;Humidity;BMP_temperature;BMP_pressure;BME280_temperature;BME280_humidity;BME280_pressure;Samples;Min_cycle;Max_cycle;Signal;HPM_P1;HPM_P2
2023/09/01 03:01:50;;;;;;;;;;;22.00;56.40;;;;;;5236506;23;46719;-82
2023/09/01 03:04:16;;;;;;;;;;;22.00;56.50;;;;;;4891096;29;45168;-78
2023/09/01 03:06:42;;;;;;;;;;;22.00;56.50;;;;;;4881258;29;47357;-80
2023/09/01 03:09:10;;;;;;;;;;;22.00;56.50;;;;;;4892077;29;45155;-80
2023/09/01 03:11:35;;;;;;;;;;;22.00;56.50;;;;;;4871850;29;45486;-79
2023/09/01 03:14:01;;;;;;;;;;;22.00;56.50;;;;;;4895703;28;45332;-82
2023/09/01 03:16:28;;;;;;;;;;;22.00;56.50;;;;;;4883327;28;45918;-79
2023/09/01 03:18:59;;;;;;;;;;;22.00;56.50;;;;;;4886459;28;45244;-81
2023/09/01 03:21:26;;;;;;;;;;;22.00;56.50;;;;;;4891395;28;45529;-79
2023/09/01 03:23:52;;;;;;;;;;;22.00;56.50;;;;;;4876693;28;44736;-79
2023/09/01 03:26:19;;;;;;;;;;;22.00;57.10;;;;;;4905276;28;46654;-83
2023/09/01 03:28:45;;;;;;;;;;;22.00;56.50;;;;;;4886985;28;45490;-79
2023/09/01 03:31:11;;;;;;;;;;;22.00;56.50;;;;;;4860928;29;45110;-81
2023/09/01 03:33:36;;;;;;;;;;;22.00;56.50;;;;;;4873438;29;45574;-79
2023/09/01 03:36:03;;;;;;;;;;;21.90;56.40;;;;;;4868787;29;47406;-78
2023/09/01 03:38:28;;;;;;;;;;;22.00;56.50;;;;;;4870424;29;45176;-80
2023/09/01 03:40:54;;;;;;;;;;;22.00;56.50;;;;;;4882058;29;45210;-79
2023/09/01 03:43:19;;;;;;;;;;;21.90;56.50;;;;;;4873632;29;45580;-78
2023/09/01 03:45:45;;;;;;;;;;;21.90;56.50;;;;;;4886159;29;47782;-82
2023/09/01 03:48:11;;;;;;;;;;;22.00;56.50;;;;;;4886591;28;45658;-79
2023/09/01 03:50:36;;;;;;;;;;;22.00;56.50;;;;;;4863047;29;45569;-80
2023/09/01 03:53:02;;;;;;;;;;;22.00;56.50;;;;;;4887107;29;44842;-80
2023/09/01 03:55:28;;;;;;;;;;;21.90;56.50;;;;;;4884450;29;46188;-82
2023/09/01 03:57:53;;;;;;;;;;;22.00;56.50;;;;;;4885227;28;45114;-78
2023/09/01 04:00:20;;;;;;;;;;;22.00;56.50;;;;;;4880874;28;45183;-86
2023/09/01 04:02:45;;;;;;;;;;;22.00;56.50;;;;;;4905481;28;45688;-81
2023/09/01 04:05:11;;;;;;;;;;;22.00;56.50;;;;;;4879949;28;46150;-79
2023/09/01 04:07:37;;;;;;;;;;;22.00;56.60;;;;;;4877688;29;45491;-79
2023/09/01 04:10:04;;;;;;;;;;;22.00;56.50;;;;;;4869144;28;44914;-86
2023/09/01 04:12:31;;;;;;;;;;;22.00;56.50;;;;;;4879986;29;45778;-80
2023/09/01 04:14:57;;;;;;;;;;;22.00;56.50;;;;;;4870688;29;46314;-80
2023/09/01 04:17:22;;;;;;;;;;;22.00;56.60;;;;;;4874683;28;45008;-79
2023/09/01 04:19:48;;;;;;;;;;;22.00;56.60;;;;;;4870869;29;45048;-78
2023/09/01 04:22:13;;;;;;;;;;;22.00;56.60;;;;;;4888870;29;45963;-79
2023/09/01 04:24:39;;;;;;;;;;;22.00;56.60;;;;;;4888643;29;46076;-79
2023/09/01 04:27:04;;;;;;;;;;;21.90;56.50;;;;;;4885998;29;45494;-79
2023/09/01 04:29:30;;;;;;;;;;;22.00;56.60;;;;;;4869558;29;45554;-82
2023/09/01 04:31:56;;;;;;;;;;;21.90;56.50;;;;;;4867178;28;45711;-80
2023/09/01 04:34:21;;;;;;;;;;;22.00;56.60;;;;;;4889131;28;46310;-80
2023/09/01 04:36:50;;;;;;;;;;;21.90;56.50;;;;;;4883028;28;45274;-82
2023/09/01 04:39:17;;;;;;;;;;;22.00;56.60;;;;;;4875979;29;45145;-78
2023/09/01 04:41:42;;;;;;;;;;;22.00;56.60;;;;;;4852546;29;45686;-79
2023/09/01 04:44:08;;;;;;;;;;;22.00;56.60;;;;;;4889850;29;45796;-80
2023/09/01 04:46:33;;;;;;;;;;;22.00;56.60;;;;;;4876801;29;45420;-78
2023/09/01 04:48:59;;;;;;;;;;;21.90;56.60;;;;;;4889390;28;45017;-78
2023/09/01 04:51:25;;;;;;;;;;;22.00;56.60;;;;;;4897140;28;45142;-78
2023/09/01 04:53:50;;;;;;;;;;;21.90;56.60;;;;;;4887603;29;46480;-81
2023/09/01 04:56:16;;;;;;;;;;;22.00;56.60;;;;;;4898413;28;45380;-78
2023/09/01 04:58:41;;;;;;;;;;;21.90;56.60;;;;;;4901762;28;45485;-80
2023/09/01 05:01:08;;;;;;;;;;;21.90;56.60;;;;;;4881916;29;45681;-78
2023/09/01 05:03:33;;;;;;;;;;;22.00;56.60;;;;;;4854114;29;45322;-85
2023/09/01 05:05:59;;;;;;;;;;;21.90;56.60;;;;;;4874166;29;45405;-80
2023/09/01 05:08:25;;;;;;;;;;;21.90;56.60;;;;;;4874351;28;45173;-79
2023/09/01 05:10:52;;;;;;;;;;;21.90;56.60;;;;;;4893568;29;45010;-78
2023/09/01 05:13:17;;;;;;;;;;;21.90;56.60;;;;;;4873854;28;46382;-79
2023/09/01 05:15:43;;;;;;;;;;;22.00;56.70;;;;;;4881804;29;45659;-78
2023/09/01 05:18:08;;;;;;;;;;;22.00;56.60;;;;;;4888491;28;45516;-78
2023/09/01 05:20:34;;;;;;;;;;;22.00;56.70;;;;;;4870011;29;45158;-79
2023/09/01 05:22:59;;;;;;;;;;;22.00;56.70;;;;;;4889493;28;45231;-81
2023/09/01 05:25:25;;;;;;;;;;;22.00;56.70;;;;;;4890002;29;44686;-80
2023/09/01 05:27:50;;;;;;;;;;;21.90;56.70;;;;;;4875204;29;45512;-79
2023/09/01 05:30:16;;;;;;;;;;;21.90;56.60;;;;;;4886431;28;45494;-79
2023/09/01 05:32:44;;;;;;;;;;;21.90;56.60;;;;;;4901293;28;45458;-79
2023/09/01 05:35:10;;;;;;;;;;;21.90;56.70;;;;;;4890791;29;45286;-79
2023/09/01 05:37:36;;;;;;;;;;;21.90;56.60;;;;;;4858169;29;46373;-80
2023/09/01 05:40:06;;;;;;;;;;;21.90;56.70;;;;;;4900573;28;45067;-86
2023/09/01 05:42:31;;;;;;;;;;;21.90;56.70;;;;;;4893441;29;46007;-79
2023/09/01 05:44:57;;;;;;;;;;;21.90;56.70;;;;;;4894390;28;45306;-79
2023/09/01 05:47:22;;;;;;;;;;;21.90;56.70;;;;;;4878342;28;45204;-80
2023/09/01 05:49:48;;;;;;;;;;;21.90;57.30;;;;;;4894503;28;44855;-80
2023/09/01 05:52:13;;;;;;;;;;;21.90;56.70;;;;;;4852929;29;45895;-80
2023/09/01 05:54:39;;;;;;;;;;;21.90;56.80;;;;;;4872072;29;45522;-79
2023/09/01 05:57:05;;;;;;;;;;;21.90;56.70;;;;;;4896068;28;45694;-80
2023/09/01 05:59:30;;;;;;;;;;;21.90;56.70;;;;;;4882817;28;45271;-81
2023/09/01 06:01:56;;;;;;;;;;;21.90;56.70;;;;;;4881348;28;47460;-79
2023/09/01 06:04:24;;;;;;;;;;;21.90;56.70;;;;;;4900878;28;45560;-78
2023/09/01 06:06:50;;;;;;;;;;;21.90;56.70;;;;;;4866526;29;45367;-80
2023/09/01 06:09:16;;;;;;;;;;;21.90;56.70;;;;;;4888333;29;45632;-89
2023/09/01 06:11:43;;;;;;;;;;;21.90;56.70;;;;;;4871163;29;46143;-79
2023/09/01 06:14:09;;;;;;;;;;;21.90;56.70;;;;;;4856997;28;45457;-79
2023/09/01 06:16:34;;;;;;;;;;;21.90;56.70;;;;;;4862542;29;45210;-79
2023/09/01 06:19:00;;;;;;;;;;;21.90;56.70;;;;;;4869671;29;45662;-79
2023/09/01 06:21:26;;;;;;;;;;;21.90;56.80;;;;;;4884117;28;46620;-80
2023/09/01 06:23:51;;;;;;;;;;;21.90;56.70;;;;;;4887606;29;45634;-79
2023/09/01 06:26:17;;;;;;;;;;;21.90;56.70;;;;;;4870028;28;45643;-85
2023/09/01 06:28:46;;;;;;;;;;;21.90;56.70;;;;;;4876073;29;45576;-83
2023/09/01 06:31:13;;;;;;;;;;;21.90;56.80;;;;;;4855311;29;46262;-79
2023/09/01 06:33:42;;;;;;;;;;;21.90;56.70;;;;;;4870411;29;45353;-79
2023/09/01 06:36:07;;;;;;;;;;;21.90;56.80;;;;;;4855943;28;45351;-79
2023/09/01 06:38:33;;;;;;;;;;;21.90;56.80;;;;;;4875998;29;45139;-78
2023/09/01 06:41:01;;;;;;;;;;;21.90;56.80;;;;;;4879503;29;46318;-78
2023/09/01 06:43:27;;;;;;;;;;;21.90;56.80;;;;;;4881756;29;45375;-79
2023/09/01 06:45:54;;;;;;;;;;;21.90;56.80;;;;;;4880862;29;45220;-78
2023/09/01 06:48:45;;;;;;;;;;;21.90;56.80;;;;;;4884847;29;45535;-83
2023/09/01 06:51:10;;;;;;;;;;;21.90;56.80;;;;;;4898863;28;45193;-79
2023/09/01 06:53:36;;;;;;;;;;;21.90;56.80;;;;;;4884769;29;45007;-79
2023/09/01 06:56:02;;;;;;;;;;;21.90;56.80;;;;;;4885887;29;45508;-81
2023/09/01 06:58:28;;;;;;;;;;;21.90;56.80;;;;;;4891005;28;45047;-80
2023/09/01 07:00:54;;;;;;;;;;;21.90;56.80;;;;;;4881310;29;46406;-80
2023/09/01 07:03:19;;;;;;;;;;;21.90;56.80;;;;;;4886502;29;45521;-79
2023/09/01 07:05:52;;;;;;;;;;;21.90;56.80;;;;;;4865607;29;45332;-79
2023/09/01 07:08:18;;;;;;;;;;;21.90;57.40;;;;;;4905206;28;44994;-80
2023/09/01 07:10:43;;;;;;;;;;;21.90;56.80;;;;;;4883839;29;45151;-79
2023/09/01 07:13:10;;;;;;;;;;;21.90;56.80;;;;;;4898661;28;45282;-80
2023/09/01 07:15:36;;;;;;;;;;;21.90;56.80;;;;;;4862693;29;45273;-80
2023/09/01 07:18:01;;;;;;;;;;;21.90;56.80;;;;;;4868594;29;46205;-80
2023/09/01 07:20:27;;;;;;;;;;;21.90;56.80;;;;;;4887346;28;46994;-84
2023/09/01 07:22:52;;;;;;;;;;;21.90;56.80;;;;;;4875961;28;45019;-79
2023/09/01 07:25:18;;;;;;;;;;;21.90;56.80;;;;;;4863422;29;45198;-80
2023/09/01 07:27:44;;;;;;;;;;;21.90;56.80;;;;;;4848715;29;45321;-79
2023/09/01 07:30:13;;;;;;;;;;;21.90;56.80;;;;;;4889167;28;46200;-86
2023/09/01 07:32:40;;;;;;;;;;;21.90;56.90;;;;;;4886677;29;45673;-81
2023/09/01 07:35:09;;;;;;;;;;;21.90;56.80;;;;;;4873223;29;45599;-83
2023/09/01 07:37:35;;;;;;;;;;;21.90;56.80;;;;;;4864970;29;45459;-80
2023/09/01 07:40:00;;;;;;;;;;;21.90;56.90;;;;;;4898681;28;46970;-80
2023/09/01 07:42:26;;;;;;;;;;;21.90;56.80;;;;;;4872546;29;45354;-81
2023/09/01 07:44:52;;;;;;;;;;;21.90;56.80;;;;;;4870600;28;45382;-80
2023/09/01 07:47:18;;;;;;;;;;;21.90;56.80;;;;;;4897318;28;45704;-80
2023/09/01 07:49:43;;;;;;;;;;;21.90;56.90;;;;;;4903163;28;45298;-80
2023/09/01 07:52:09;;;;;;;;;;;21.90;56.80;;;;;;4879681;28;45256;-80
2023/09/01 07:54:34;;;;;;;;;;;21.90;56.80;;;;;;4889407;29;45554;-79
2023/09/01 07:56:59;;;;;;;;;;;21.90;56.90;;;;;;4855371;29;45224;-80
2023/09/01 07:59:25;;;;;;;;;;;21.90;56.90;;;;;;4874196;29;46313;-87
2023/09/01 08:01:52;;;;;;;;;;;21.90;56.90;;;;;;4854674;29;45300;-79
2023/09/01 08:04:18;;;;;;;;;;;21.90;56.90;;;;;;4891999;28;45407;-78
2023/09/01 08:06:44;;;;;;;;;;;21.90;56.90;;;;;;4883164;28;45783;-79
2023/09/01 08:09:09;;;;;;;;;;;21.90;56.90;;;;;;4888326;28;46013;-80
2023/09/01 08:11:35;;;;;;;;;;;21.90;56.90;;;;;;4889490;29;45758;-80
2023/09/01 08:14:00;;;;;;;;;;;21.90;56.90;;;;;;4874250;29;45497;-79
2023/09/01 08:16:26;;;;;;;;;;;21.90;56.90;;;;;;4884922;29;45631;-82
2023/09/01 08:18:51;;;;;;;;;;;21.90;56.90;;;;;;4857145;29;45038;-80
2023/09/01 08:21:17;;;;;;;;;;;21.90;56.90;;;;;;4868249;29;45589;-78
2023/09/01 08:23:42;;;;;;;;;;;21.90;56.90;;;;;;4889455;28;45293;-81
2023/09/01 08:26:08;;;;;;;;;;;21.90;56.90;;;;;;4899254;28;44980;-80
2023/09/01 08:28:33;;;;;;;;;;;21.90;56.90;;;;;;4871406;29;46588;-79
2023/09/01 08:31:03;;;;;;;;;;;21.90;56.90;;;;;;4855300;28;45546;-84
2023/09/01 08:33:28;;;;;;;;;;;21.90;56.90;;;;;;4857893;28;44894;-82
2023/09/01 08:35:53;;;;;;;;;;;21.90;57.00;;;;;;4883951;29;45456;-79
2023/09/01 08:38:20;;;;;;;;;;;21.90;57.00;;;;;;4887104;29;45679;-81
2023/09/01 08:40:48;;;;;;;;;;;21.90;56.90;;;;;;4886875;28;45351;-81
2023/09/01 08:43:17;;;;;;;;;;;21.90;57.00;;;;;;4894098;28;45189;-78
2023/09/01 08:45:42;;;;;;;;;;;21.90;57.00;;;;;;4861729;29;45310;-79
2023/09/01 08:48:08;;;;;;;;;;;21.90;57.00;;;;;;4882347;29;45900;-80
2023/09/01 08:50:33;;;;;;;;;;;21.90;57.00;;;;;;4895968;28;45074;-80
2023/09/01 08:52:59;;;;;;;;;;;21.90;57.00;;;;;;4888453;28;45530;-84
2023/09/01 08:55:25;;;;;;;;;;;21.90;57.00;;;;;;4900758;29;44987;-80
2023/09/01 08:57:51;;;;;;;;;;;21.90;57.00;;;;;;4894635;28;45790;-81
2023/09/01 09:00:17;;;;;;;;;;;21.90;57.00;;;;;;4869490;28;45504;-81
2023/09/01 09:02:43;;;;;;;;;;;21.90;57.00;;;;;;4867933;29;45021;-78
2023/09/01 09:05:14;;;;;;;;;;;21.90;57.00;;;;;;4886273;28;45078;-81
2023/09/01 09:07:40;;;;;;;;;;;21.90;57.00;;;;;;4876757;28;45577;-78
2023/09/01 09:10:14;;;;;;;;;;;21.90;57.00;;;;;;4898974;28;45051;-81
2023/09/01 09:12:43;;;;;;;;;;;21.90;57.00;;;;;;4868139;29;44847;-78
2023/09/01 09:15:09;;;;;;;;;;;21.90;57.00;;;;;;4858363;28;45519;-83
2023/09/01 09:17:44;;;;;;;;;;;21.90;57.00;;;;;;4892956;29;45537;-80
2023/09/01 09:20:10;;;;;;;;;;;21.90;57.60;;;;;;4871720;29;44878;-78
2023/09/01 09:22:55;;;;;;;;;;;21.90;57.00;;;;;;4866323;29;45561;-79
2023/09/01 09:25:25;;;;;;;;;;;21.90;57.00;;;;;;4899813;28;45067;-80
2023/09/01 09:27:50;;;;;;;;;;;21.90;57.00;;;;;;4858859;28;47145;-81
2023/09/01 09:30:16;;;;;;;;;;;21.90;57.00;;;;;;4872979;28;45272;-79
2023/09/01 09:32:41;;;;;;;;;;;21.90;57.10;;;;;;4859550;28;45060;-79
2023/09/01 09:35:13;;;;;;;;;;;21.90;57.10;;;;;;4895240;28;45215;-81
2023/09/01 09:37:39;;;;;;;;;;;21.90;57.10;;;;;;4886103;29;45403;-80
2023/09/01 09:40:09;;;;;;;;;;;21.90;57.10;;;;;;4888005;29;44979;-82
2023/09/01 09:42:38;;;;;;;;;;;21.90;57.10;;;;;;4890271;29;45426;-86
2023/09/01 09:45:06;;;;;;;;;;;21.90;57.10;;;;;;4901835;28;45504;-85
2023/09/01 09:47:35;;;;;;;;;;;21.90;57.10;;;;;;4849840;29;45509;-80
2023/09/01 09:50:00;;;;;;;;;;;21.90;57.10;;;;;;4855206;29;46137;-79
2023/09/01 09:52:26;;;;;;;;;;;21.90;57.10;;;;;;4884564;28;45459;-78
2023/09/01 09:54:57;;;;;;;;;;;21.90;57.10;;;;;;4900894;28;44947;-80
2023/09/01 09:57:22;;;;;;;;;;;21.90;57.10;;;;;;4887881;28;45537;-81
2023/09/01 09:59:48;;;;;;;;;;;21.90;57.20;;;;;;4883929;29;45014;-80
2023/09/01 10:02:25;;;;;;;;;;;21.90;57.10;;;;;;4874667;28;45175;-79
2023/09/01 10:04:51;;;;;;;;;;;21.90;57.10;;;;;;4875465;29;45603;-80
2023/09/01 10:07:16;;;;;;;;;;;21.90;57.10;;;;;;4884094;29;45943;-79
2023/09/01 10:09:42;;;;;;;;;;;21.90;57.10;;;;;;4884391;28;45310;-80
2023/09/01 10:12:07;;;;;;;;;;;21.90;57.10;;;;;;4879294;28;45445;-80
2023/09/01 10:14:37;;;;;;;;;;;21.90;57.20;;;;;;4907511;28;45202;-79
2023/09/01 10:17:05;;;;;;;;;;;21.90;57.20;;;;;;4883097;28;45575;-80
2023/09/01 10:19:31;;;;;;;;;;;21.90;57.20;;;;;;4887768;28;45218;-79
2023/09/01 10:21:57;;;;;;;;;;;21.90;57.20;;;;;;4888098;28;45175;-79
2023/09/01 10:24:22;;;;;;;;;;;21.90;57.20;;;;;;4892615;29;45754;-84
2023/09/01 10:27:04;;;;;;;;;;;21.90;57.20;;;;;;4898020;28;45586;-80
2023/09/01 10:29:31;;;;;;;;;;;21.90;57.20;;;;;;4897958;29;45223;-80
2023/09/01 10:32:13;;;;;;;;;;;22.00;57.20;;;;;;4896146;28;45543;-80
2023/09/01 10:34:38;;;;;;;;;;;21.90;57.20;;;;;;4900407;28;45064;-79
2023/09/01 10:37:23;;;;;;;;;;;21.90;57.20;;;;;;4904394;28;45452;-80
2023/09/01 10:39:48;;;;;;;;;;;21.90;57.20;;;;;;4908358;28;45351;-80
2023/09/01 10:42:14;;;;;;;;;;;21.90;57.20;;;;;;4868844;29;45028;-81
2023/09/01 10:44:39;;;;;;;;;;;21.90;57.20;;;;;;4874520;29;44903;-79
2023/09/01 10:47:31;;;;;;;;;;;21.90;57.20;;;;;;4887790;28;46524;-79
2023/09/01 10:50:00;;;;;;;;;;;21.90;57.20;;;;;;4871494;28;44742;-80
2023/09/01 10:52:28;;;;;;;;;;;21.90;57.20;;;;;;4885298;29;44747;-79
2023/09/01 10:54:57;;;;;;;;;;;21.90;57.30;;;;;;4878766;28;44983;-79
2023/09/01 10:57:22;;;;;;;;;;;21.90;57.30;;;;;;4876841;29;46355;-79
2023/09/01 10:59:48;;;;;;;;;;;21.90;57.30;;;;;;4882977;28;45381;-79
2023/09/01 11:02:18;;;;;;;;;;;21.90;57.30;;;;;;4866163;28;45141;-79
2023/09/01 11:04:44;;;;;;;;;;;21.90;57.30;;;;;;4877538;28;45115;-80
2023/09/01 11:07:10;;;;;;;;;;;21.90;57.30;;;;;;4903749;28;46383;-84
2023/09/01 11:09:36;;;;;;;;;;;21.90;57.30;;;;;;4881198;29;45245;-79
2023/09/01 11:12:02;;;;;;;;;;;21.90;57.30;;;;;;4894505;28;45659;-83
2023/09/01 11:14:29;;;;;;;;;;;21.90;57.30;;;;;;4865089;29;45225;-79
2023/09/01 11:16:54;;;;;;;;;;;21.90;57.30;;;;;;4874360;29;47195;-78
2023/09/01 11:19:20;;;;;;;;;;;21.90;57.30;;;;;;4890939;29;45136;-80
2023/09/01 11:21:45;;;;;;;;;;;21.90;57.30;;;;;;4881912;29;45737;-80
2023/09/01 11:24:11;;;;;;;;;;;21.90;57.30;;;;;;4900131;28;45357;-79
2023/09/01 11:26:36;;;;;;;;;;;21.90;57.30;;;;;;4880184;29;45279;-80
2023/09/01 11:29:03;;;;;;;;;;;21.90;57.30;;;;;;4871741;28;45162;-80
2023/09/01 11:31:38;;;;;;;;;;;21.90;57.30;;;;;;4881666;29;45401;-87
2023/09/01 11:34:03;;;;;;;;;;;21.90;57.30;;;;;;4874504;28;45095;-82
2023/09/01 11:36:29;;;;;;;;;;;21.90;57.90;;;;;;4895826;28;45377;-79
2023/09/01 11:38:54;;;;;;;;;;;21.90;57.40;;;;;;4899126;28;45244;-79
2023/09/01 11:41:20;;;;;;;;;;;21.90;57.30;;;;;;4894660;28;45210;-80
2023/09/01 11:43:47;;;;;;;;;;;21.90;57.40;;;;;;4879050;28;45120;-83
2023/09/01 11:46:14;;;;;;;;;;;21.90;57.40;;;;;;4882631;28;45426;-83
2023/09/01 11:48:39;;;;;;;;;;;21.90;57.40;;;;;;4882125;29;45446;-79
2023/09/01 11:51:05;;;;;;;;;;;21.90;57.40;;;;;;4893417;28;45461;-79
2023/09/01 11:53:32;;;;;;;;;;;21.90;57.40;;;;;;4879103;29;45558;-79
2023/09/01 11:55:58;;;;;;;;;;;21.90;57.40;;;;;;4877720;29;45596;-81
2023/09/01 11:58:33;;;;;;;;;;;21.90;57.40;;;;;;4867255;29;45164;-81
2023/09/01 12:01:11;;;;;;;;;;;21.90;57.40;;;;;;4899374;28;45090;-79
2023/09/01 12:03:37;;;;;;;;;;;21.90;57.40;;;;;;4883969;29;45163;-79
2023/09/01 12:06:22;;;;;;;;;;;21.90;57.40;;;;;;4855663;29;46212;-79
2023/09/01 12:08:47;;;;;;;;;;;21.90;57.40;;;;;;4870353;29;45155;-80
2023/09/01 12:11:13;;;;;;;;;;;22.00;57.50;;;;;;4859578;29;45316;-80
2023/09/01 12:13:39;;;;;;;;;;;22.00;57.40;;;;;;4879199;29;45478;-79
2023/09/01 12:16:04;;;;;;;;;;;22.00;57.40;;;;;;4852750;28;46215;-79
2023/09/01 12:18:30;;;;;;;;;;;22.00;57.40;;;;;;4870866;29;45249;-79
2023/09/01 12:20:56;;;;;;;;;;;22.00;57.40;;;;;;4872291;29;45216;-79
2023/09/01 12:23:25;;;;;;;;;;;22.00;57.50;;;;;;4893320;29;45440;-79
2023/09/01 12:25:51;;;;;;;;;;;22.00;57.40;;;;;;4871683;28;46026;-85
2023/09/01 12:28:16;;;;;;;;;;;22.00;57.50;;;;;;4876328;29;45014;-80
2023/09/01 12:30:42;;;;;;;;;;;22.00;57.50;;;;;;4866403;29;44947;-78
2023/09/01 12:33:08;;;;;;;;;;;22.00;57.50;;;;;;4898538;28;45286;-79
2023/09/01 12:35:33;;;;;;;;;;;22.00;57.50;;;;;;4903624;28;46040;-78
2023/09/01 12:37:59;;;;;;;;;;;22.00;57.50;;;;;;4875054;29;45361;-80
2023/09/01 12:40:24;;;;;;;;;;;22.00;57.50;;;;;;4889142;28;44855;-79
2023/09/01 12:42:50;;;;;;;;;;;22.00;57.50;;;;;;4884086;29;45204;-79
2023/09/01 12:45:15;;;;;;;;;;;22.00;57.50;;;;;;4886006;28;45258;-80
2023/09/01 12:47:41;;;;;;;;;;;22.00;57.50;;;;;;4887261;29;45246;-78
2023/09/01 12:50:06;;;;;;;;;;;22.00;57.50;;;;;;4887721;29;45596;-85
2023/09/01 12:52:33;;;;;;;;;;;22.00;57.60;;;;;;4894662;29;45716;-79
2023/09/01 12:54:59;;;;;;;;;;;22.00;57.50;;;;;;4874251;28;45577;-81
2023/09/01 12:57:25;;;;;;;;;;;22.00;57.50;;;;;;4870882;29;45297;-79
2023/09/01 12:59:50;;;;;;;;;;;22.00;57.60;;;;;;4910394;28;45649;-80
2023/09/01 13:02:16;;;;;;;;;;;22.00;57.60;;;;;;4875290;29;45441;-79
2023/09/01 13:04:43;;;;;;;;;;;22.00;57.60;;;;;;4859411;29;46369;-80
2023/09/01 13:07:10;;;;;;;;;;;22.00;57.60;;;;;;4876792;28;44836;-80
2023/09/01 13:09:36;;;;;;;;;;;22.00;57.60;;;;;;4893318;28;45520;-80
2023/09/01 13:12:01;;;;;;;;;;;22.00;57.60;;;;;;4895992;28;44900;-79
2023/09/01 13:14:27;;;;;;;;;;;22.00;57.70;;;;;;4886211;29;45974;-81
2023/09/01 13:16:53;;;;;;;;;;;22.00;57.70;;;;;;4883948;28;45261;-78
2023/09/01 13:19:19;;;;;;;;;;;22.00;57.70;;;;;;4882828;28;45417;-79
2023/09/01 13:21:44;;;;;;;;;;;22.00;57.70;;;;;;4873290;29;45209;-80
2023/09/01 13:24:10;;;;;;;;;;;22.00;57.70;;;;;;4889198;29;45464;-79
2023/09/01 13:26:35;;;;;;;;;;;22.00;57.70;;;;;;4898734;28;45478;-80
2023/09/01 13:29:02;;;;;;;;;;;22.00;57.70;;;;;;4875005;29;45152;-79
2023/09/01 13:31:28;;;;;;;;;;;22.00;57.70;;;;;;4875689;28;45181;-85
2023/09/01 13:33:54;;;;;;;;;;;22.00;57.70;;;;;;4894254;28;46320;-83
2023/09/01 13:36:20;;;;;;;;;;;22.00;57.70;;;;;;4878161;28;45181;-79
2023/09/01 13:38:45;;;;;;;;;;;22.00;57.80;;;;;;4871427;29;44931;-80
2023/09/01 13:41:11;;;;;;;;;;;22.00;57.80;;;;;;4897521;28;45462;-78
2023/09/01 13:43:37;;;;;;;;;;;22.00;57.80;;;;;;4884461;28;45524;-79
2023/09/01 13:46:22;;;;;;;;;;;22.00;57.80;;;;;;4868752;29;45493;-86
2023/09/01 13:48:52;;;;;;;;;;;22.00;57.80;;;;;;4899007;28;44659;-80
2023/09/01 13:51:17;;;;;;;;;;;22.00;57.80;;;;;;4881635;29;45479;-80
2023/09/01 13:53:43;;;;;;;;;;;22.00;57.80;;;;;;4871363;29;47055;-84
2023/09/01 13:56:09;;;;;;;;;;;22.00;57.80;;;;;;4861288;29;45395;-80
2023/09/01 13:58:34;;;;;;;;;;;22.00;57.80;;;;;;4867005;28;45201;-80
2023/09/01 14:01:00;;;;;;;;;;;22.00;57.80;;;;;;4889625;28;45578;-84
2023/09/01 14:03:25;;;;;;;;;;;22.00;57.90;;;;;;4875670;28;45659;-81
2023/09/01 14:05:51;;;;;;;;;;;22.00;57.90;;;;;;4894538;29;44794;-80
2023/09/01 14:08:16;;;;;;;;;;;22.00;57.90;;;;;;4899764;28;45468;-80
2023/09/01 14:10:42;;;;;;;;;;;22.00;57.90;;;;;;4888827;28;45060;-81
2023/09/01 14:13:08;;;;;;;;;;;22.00;57.90;;;;;;4898755;28;45624;-80
2023/09/01 14:15:34;;;;;;;;;;;22.00;57.90;;;;;;4883297;29;45531;-79
2023/09/01 14:18:00;;;;;;;;;;;22.00;57.90;;;;;;4890889;29;44710;-79
2023/09/01 14:20:26;;;;;;;;;;;22.00;57.90;;;;;;4878914;28;45715;-80
2023/09/01 14:22:52;;;;;;;;;;;22.00;57.90;;;;;;4896830;28;46452;-80
2023/09/01 14:25:21;;;;;;;;;;;22.00;57.90;;;;;;4884874;29;45290;-86
2023/09/01 14:27:46;;;;;;;;;;;22.00;57.90;;;;;;4882722;29;44731;-81
2023/09/01 14:30:15;;;;;;;;;;;22.00;57.90;;;;;;4859399;29;45114;-83
2023/09/01 14:32:41;;;;;;;;;;;22.00;57.90;;;;;;4867092;29;46125;-79
2023/09/01 14:35:07;;;;;;;;;;;22.00;57.90;;;;;;4887361;29;44904;-89
2023/09/01 14:37:32;;;;;;;;;;;22.10;58.00;;;;;;4867230;29;45420;-79
2023/09/01 14:39:58;;;;;;;;;;;22.00;57.90;;;;;;4897572;28;45532;-79
2023/09/01 14:42:23;;;;;;;;;;;22.00;57.90;;;;;;4864781;29;45426;-81
2023/09/01 14:44:48;;;;;;;;;;;22.00;58.00;;;;;;4891311;29;45118;-80
2023/09/01 14:47:14;;;;;;;;;;;22.00;58.00;;;;;;4889990;28;44620;-78
2023/09/01 14:49:40;;;;;;;;;;;22.00;58.00;;;;;;4886787;29;45024;-79
2023/09/01 14:52:05;;;;;;;;;;;22.10;58.00;;;;;;4879160;29;46243;-82
2023/09/01 14:54:31;;;;;;;;;;;22.10;58.00;;;;;;4899023;28;45438;-79
2023/09/01 14:56:57;;;;;;;;;;;22.10;58.00;;;;;;4883995;29;45096;-78
2023/09/01 14:59:25;;;;;;;;;;;22.00;58.00;;;;;;4897580;28;45231;-78
2023/09/01 15:01:51;;;;;;;;;;;22.00;58.00;;;;;;4892711;28;46174;-80
2023/09/01 15:04:17;;;;;;;;;;;22.10;58.00;;;;;;4868663;29;45200;-79
2023/09/01 15:06:42;;;;;;;;;;;22.10;58.00;;;;;;4898742;28;45432;-82
2023/09/01 15:09:08;;;;;;;;;;;22.10;58.00;;;;;;4867566;28;45577;-82
2023/09/01 15:11:35;;;;;;;;;;;22.10;58.00;;;;;;4878186;29;46202;-79
2023/09/01 15:14:00;;;;;;;;;;;22.00;58.00;;;;;;4883420;29;45293;-78
2023/09/01 15:16:26;;;;;;;;;;;22.10;58.00;;;;;;4860256;28;45126;-79
2023/09/01 15:18:52;;;;;;;;;;;22.00;58.00;;;;;;4895145;28;45406;-80
2023/09/01 15:21:17;;;;;;;;;;;22.10;58.00;;;;;;4864154;29;45573;-80
2023/09/01 15:23:43;;;;;;;;;;;22.10;58.00;;;;;;4882224;29;45605;-82
2023/09/01 15:26:10;;;;;;;;;;;22.00;58.00;;;;;;4873680;29;44902;-85
2023/09/01 15:28:36;;;;;;;;;;;22.10;58.00;;;;;;4875835;29;45325;-80
2023/09/01 15:31:05;;;;;;;;;;;22.10;58.00;;;;;;4901325;28;46765;-81
2023/09/01 15:33:31;;;;;;;;;;;22.10;58.10;;;;;;4897087;28;46001;-82
2023/09/01 15:35:57;;;;;;;;;;;22.10;58.10;;;;;;4880775;29;46292;-79
2023/09/01 15:38:24;;;;;;;;;;;22.10;58.10;;;;;;4884187;29;45531;-79
2023/09/01 15:40:51;;;;;;;;;;;22.10;58.10;;;;;;4866055;29;46280;-79
2023/09/01 15:43:17;;;;;;;;;;;22.10;58.10;;;;;;4882993;29;45253;-78
2023/09/01 15:45:43;;;;;;;;;;;22.10;58.10;;;;;;4885955;28;45171;-80
2023/09/01 15:48:08;;;;;;;;;;;22.10;58.10;;;;;;4885690;29;45705;-78
2023/09/01 15:50:34;;;;;;;;;;;22.10;58.10;;;;;;4883047;29;45643;-83
2023/09/01 15:53:00;;;;;;;;;;;22.10;58.10;;;;;;4869667;29;45101;-84
2023/09/01 15:55:25;;;;;;;;;;;22.10;58.10;;;;;;4898968;28;45801;-79
2023/09/01 15:57:51;;;;;;;;;;;22.10;58.20;;;;;;4887101;28;45208;-83
2023/09/01 16:00:17;;;;;;;;;;;22.10;58.10;;;;;;4868301;29;47573;-81
2023/09/01 16:02:42;;;;;;;;;;;22.10;58.10;;;;;;4860021;29;45469;-79
2023/09/01 16:05:12;;;;;;;;;;;22.10;58.10;;;;;;4857389;29;44917;-80
2023/09/01 16:07:38;;;;;;;;;;;22.10;58.10;;;;;;4845583;29;45347;-79
2023/09/01 16:10:08;;;;;;;;;;;22.10;58.10;;;;;;4874985;29;45575;-83
2023/09/01 16:12:33;;;;;;;;;;;22.10;58.10;;;;;;4849279;29;45391;-79
2023/09/01 16:14:58;;;;;;;;;;;22.10;58.10;;;;;;4866656;29;44900;-83
2023/09/01 16:17:24;;;;;;;;;;;22.10;58.10;;;;;;4848162;29;45112;-85
2023/09/01 16:19:50;;;;;;;;;;;22.10;58.10;;;;;;4864451;29;46198;-80
2023/09/01 16:22:16;;;;;;;;;;;22.10;58.10;;;;;;4863667;29;45402;-81
2023/09/01 16:24:42;;;;;;;;;;;22.10;58.10;;;;;;4868645;29;45419;-79
2023/09/01 16:27:07;;;;;;;;;;;22.10;58.10;;;;;;4850785;29;45019;-81
2023/09/01 16:29:33;;;;;;;;;;;22.10;58.10;;;;;;4879098;29;45180;-82
2023/09/01 16:31:58;;;;;;;;;;;22.10;58.10;;;;;;4860352;29;45328;-85
2023/09/01 16:34:24;;;;;;;;;;;22.10;58.10;;;;;;4860448;29;45274;-79
2023/09/01 16:36:50;;;;;;;;;;;22.10;58.10;;;;;;4879332;29;44673;-80
2023/09/01 16:39:16;;;;;;;;;;;22.10;58.10;;;;;;4881554;29;45626;-82
2023/09/01 16:41:42;;;;;;;;;;;22.10;58.10;;;;;;4850817;29;45022;-79
2023/09/01 16:44:08;;;;;;;;;;;22.10;58.10;;;;;;4880230;29;45372;-81
2023/09/01 16:46:34;;;;;;;;;;;22.10;58.10;;;;;;4856996;29;45312;-81
2023/09/01 16:49:00;;;;;;;;;;;22.20;58.20;;;;;;4854011;29;46238;-80
2023/09/01 16:51:25;;;;;;;;;;;22.10;58.10;;;;;;4862445;29;45101;-79
2023/09/01 16:53:51;;;;;;;;;;;22.20;58.20;;;;;;4855492;29;46112;-84
2023/09/01 16:56:16;;;;;;;;;;;22.20;58.20;;;;;;4877682;29;45312;-82
2023/09/01 16:58:42;;;;;;;;;;;22.10;58.20;;;;;;4863943;29;45361;-80
2023/09/01 17:01:08;;;;;;;;;;;22.10;58.20;;;;;;4855090;29;46418;-81
2023/09/01 17:03:33;;;;;;;;;;;22.10;58.20;;;;;;4868320;29;45428;-78
2023/09/01 17:05:59;;;;;;;;;;;22.10;58.20;;;;;;4873916;29;45643;-81
2023/09/01 17:08:26;;;;;;;;;;;22.10;58.20;;;;;;4866373;29;45841;-80
2023/09/01 17:10:52;;;;;;;;;;;22.10;58.20;;;;;;4858910;29;45599;-79
2023/09/01 17:13:18;;;;;;;;;;;22.10;58.20;;;;;;4854037;29;45084;-80